Time;durP1;ratioP1;P1;durP2;ratioP2;P2;SDS_P1;SDS_P2;PMS_P1;PMS_P2;Temp;Humidity;BMP_temperature;BMP_pressure;BME280_temperature;BME280_humidity;BME280_pressure;Samples;Min_cycle;Max_cycle;Signal;HPM_P1;HPM_P2
2023/04/04 00:00:32;;;;;;;9.17;2.60;;;-0.70;99.90;;;;;;5220973;28;20212;-50
2023/04/04 00:03:02;;;;;;;4.03;2.37;;;-0.60;99.90;;;;;;5183078;28;20628;-49
2023/04/04 00:05:34;;;;;;;7.30;2.10;;;-0.70;99.90;;;;;;5198526;28;20176;-49
2023/04/04 00:08:05;;;;;;;6.97;2.40;;;-0.70;99.90;;;;;;5194393;28;20648;-49
2023/04/04 00:10:36;;;;;;;3.10;2.17;;;-0.80;99.90;;;;;;5194315;28;20463;-49
2023/04/04 00:13:07;;;;;;;2.33;2.10;;;-0.80;99.90;;;;;;5211042;28;20219;-50
2023/04/04 00:15:38;;;;;;;8.43;1.77;;;-0.80;99.90;;;;;;5192487;28;20176;-49
2023/04/04 00:18:08;;;;;;;3.97;1.70;;;-0.90;99.90;;;;;;5184278;28;20445;-50
2023/04/04 00:20:39;;;;;;;3.93;2.07;;;-0.90;99.90;;;;;;5221730;28;20267;-51
2023/04/04 00:23:10;;;;;;;3.20;1.80;;;-0.90;99.90;;;;;;5194288;28;20180;-50
2023/04/04 00:25:40;;;;;;;9.37;2.43;;;-0.80;99.90;;;;;;5188349;28;20271;-50
2023/04/04 00:28:11;;;;;;;2.27;2.07;;;-0.80;99.90;;;;;;5196511;28;20672;-51
2023/04/04 00:30:42;;;;;;;3.23;2.17;;;-0.80;99.90;;;;;;5175186;28;20195;-50
2023/04/04 00:33:13;;;;;;;4.33;2.30;;;-0.90;99.90;;;;;;5191270;28;20184;-49
2023/04/04 00:35:44;;;;;;;2.23;2.13;;;-1.00;99.90;;;;;;5173684;28;20432;-49
2023/04/04 00:38:14;;;;;;;5.60;2.50;;;-1.00;99.90;;;;;;5193863;28;20456;-50
2023/04/04 00:40:48;;;;;;;2.83;2.07;;;-1.00;99.90;;;;;;5187949;28;20216;-50
2023/04/04 00:43:18;;;;;;;12.20;2.40;;;-1.00;99.90;;;;;;5201123;28;20215;-49
2023/04/04 00:45:51;;;;;;;8.60;2.30;;;-1.00;99.90;;;;;;5189536;28;21053;-50
2023/04/04 00:48:23;;;;;;;12.33;2.20;;;-1.10;99.90;;;;;;5197344;28;20204;-49
2023/04/04 00:50:54;;;;;;;12.57;3.03;;;-1.10;99.90;;;;;;5201938;28;20453;-50
2023/04/04 00:53:25;;;;;;;4.43;1.87;;;-1.10;99.90;;;;;;5215310;28;20961;-49
2023/04/04 00:55:55;;;;;;;2.37;1.83;;;-1.10;99.90;;;;;;5192363;28;20183;-50
2023/04/04 00:58:26;;;;;;;7.03;2.23;;;-1.10;99.90;;;;;;5198954;28;20542;-50
2023/04/04 01:01:00;;;;;;;5.93;2.77;;;-1.20;99.90;;;;;;5222022;28;20214;-49
2023/04/04 01:03:31;;;;;;;11.83;1.90;;;-1.20;99.90;;;;;;5178501;28;20180;-49
2023/04/04 01:06:02;;;;;;;5.70;1.90;;;-1.20;99.90;;;;;;5197073;28;20536;-50
2023/04/04 01:08:36;;;;;;;3.37;1.93;;;-1.30;99.90;;;;;;5193067;28;20541;-50
2023/04/04 01:11:08;;;;;;;3.07;1.77;;;-1.30;99.90;;;;;;5185769;28;20516;-50
2023/04/04 01:13:38;;;;;;;7.40;2.10;;;-1.30;99.90;;;;;;5194472;28;20427;-50
2023/04/04 01:16:12;;;;;;;2.07;1.97;;;-1.30;99.90;;;;;;5213680;28;20433;-48
2023/04/04 01:18:43;;;;;;;2.60;1.80;;;-1.30;99.90;;;;;;5203066;28;20434;-50
2023/04/04 01:21:16;;;;;;;6.83;1.73;;;-1.30;99.90;;;;;;5194618;28;20458;-49
2023/04/04 01:24:01;;;;;;;2.80;2.50;;;-1.40;99.90;;;;;;5172355;28;20438;-49
2023/04/04 01:26:32;;;;;;;5.57;1.87;;;-1.40;99.90;;;;;;5188809;28;20438;-50
2023/04/04 01:29:03;;;;;;;3.93;2.27;;;-1.40;99.90;;;;;;5200817;28;20430;-50
2023/04/04 01:31:40;;;;;;;6.23;1.87;;;-1.50;99.90;;;;;;5180245;28;20447;-50
2023/04/04 01:34:19;;;;;;;2.17;2.00;;;-1.50;99.90;;;;;;5199521;28;20172;-52
2023/04/04 01:37:02;;;;;;;3.83;2.10;;;-1.40;99.90;;;;;;5183996;28;20525;-50
2023/04/04 01:39:44;;;;;;;7.57;2.17;;;-1.50;99.90;;;;;;5202469;28;20470;-51
2023/04/04 01:42:15;;;;;;;4.07;2.37;;;-1.50;99.90;;;;;;5209625;28;20537;-50
2023/04/04 01:44:46;;;;;;;3.17;1.70;;;-1.60;99.90;;;;;;5199910;28;20433;-50
2023/04/04 01:47:17;;;;;;;3.67;2.00;;;-1.60;99.90;;;;;;5199257;28;20469;-51
2023/04/04 01:49:48;;;;;;;2.50;2.30;;;-1.60;99.90;;;;;;5213124;28;20446;-49
2023/04/04 01:52:18;;;;;;;3.77;2.77;;;-1.70;99.90;;;;;;5196897;28;20176;-52
2023/04/04 01:54:49;;;;;;;3.93;2.37;;;-1.70;99.90;;;;;;5196407;28;20190;-50
2023/04/04 01:57:20;;;;;;;4.30;1.77;;;-1.70;99.90;;;;;;5188143;28;20188;-50
2023/04/04 01:59:50;;;;;;;3.00;2.27;;;-1.80;99.90;;;;;;5192116;28;20200;-50
2023/04/04 02:02:21;;;;;;;6.70;2.50;;;-1.70;99.90;;;;;;5198861;28;20188;-48
2023/04/04 02:04:52;;;;;;;3.97;1.80;;;-1.70;99.90;;;;;;5178911;28;20180;-50
2023/04/04 02:07:23;;;;;;;2.70;1.87;;;-1.80;99.90;;;;;;5197625;28;20501;-49
2023/04/04 02:09:53;;;;;;;5.30;2.50;;;-1.80;99.90;;;;;;5210448;28;20279;-49
2023/04/04 02:12:25;;;;;;;12.00;2.10;;;-1.80;99.90;;;;;;5205016;28;20183;-49
2023/04/04 02:14:55;;;;;;;4.97;2.30;;;-1.90;99.90;;;;;;5189923;28;20171;-50
2023/04/04 02:17:27;;;;;;;3.73;1.97;;;-1.90;99.90;;;;;;5183939;28;21033;-49
2023/04/04 02:19:57;;;;;;;4.30;2.13;;;-1.80;99.90;;;;;;5190244;28;20196;-50
2023/04/04 02:22:28;;;;;;;3.50;2.07;;;-1.90;99.90;;;;;;5187871;28;20453;-50
2023/04/04 02:25:01;;;;;;;14.03;3.03;;;-1.90;99.90;;;;;;5183595;28;20192;-50
2023/04/04 02:27:32;;;;;;;4.60;2.27;;;-1.90;99.90;;;;;;5195974;28;20270;-49
2023/04/04 02:30:02;;;;;;;12.67;2.53;;;-1.90;99.90;;;;;;5193838;28;20564;-50
2023/04/04 02:32:33;;;;;;;4.03;2.53;;;-1.80;99.90;;;;;;5195986;28;20190;-49
2023/04/04 02:35:04;;;;;;;3.60;3.20;;;-1.90;99.90;;;;;;5178262;28;20179;-50
2023/04/04 02:37:35;;;;;;;6.30;2.80;;;-1.90;99.90;;;;;;5198250;28;20584;-48
2023/04/04 02:40:06;;;;;;;7.33;2.73;;;-1.90;99.90;;;;;;5211485;28;20484;-49
2023/04/04 02:42:41;;;;;;;8.83;2.70;;;-1.90;99.90;;;;;;5209911;28;20192;-49
2023/04/04 02:45:13;;;;;;;3.93;2.23;;;-1.90;99.90;;;;;;5201010;28;20804;-51
2023/04/04 02:47:49;;;;;;;4.57;2.60;;;-1.90;99.90;;;;;;5177959;28;20896;-50
2023/04/04 02:50:20;;;;;;;11.90;3.57;;;-1.80;99.90;;;;;;5200220;28;20526;-49
2023/04/04 02:52:50;;;;;;;7.00;1.87;;;-1.90;99.90;;;;;;5203072;28;20463;-50
2023/04/04 02:55:21;;;;;;;6.33;2.67;;;-1.90;99.90;;;;;;5200695;28;20180;-52
2023/04/04 02:57:51;;;;;;;5.63;2.43;;;-1.90;99.90;;;;;;5192464;28;20659;-50
2023/04/04 03:00:22;;;;;;;2.47;1.90;;;-1.90;99.90;;;;;;5185491;28;20211;-50
2023/04/04 03:02:54;;;;;;;3.97;2.43;;;-1.90;99.90;;;;;;5203443;28;20236;-49
2023/04/04 03:05:26;;;;;;;3.67;2.77;;;-1.80;99.90;;;;;;5193593;28;20290;-49
2023/04/04 03:07:58;;;;;;;3.53;2.23;;;-1.90;99.90;;;;;;5196521;28;20478;-50
2023/04/04 03:10:29;;;;;;;12.50;3.30;;;-1.80;99.90;;;;;;5196961;28;20515;-49
2023/04/04 03:12:59;;;;;;;6.97;2.90;;;-1.80;99.90;;;;;;5203151;28;20436;-51
2023/04/04 03:15:30;;;;;;;8.90;2.80;;;-1.80;99.90;;;;;;5213881;28;20435;-49
2023/04/04 03:18:01;;;;;;;8.13;2.20;;;-1.70;99.90;;;;;;5195228;28;20616;-48
2023/04/04 03:20:32;;;;;;;3.50;2.10;;;-1.80;99.90;;;;;;5207792;28;20206;-49
2023/04/04 03:23:03;;;;;;;5.00;1.90;;;-1.80;99.90;;;;;;5217975;28;20796;-51
2023/04/04 03:25:33;;;;;;;10.60;2.27;;;-1.90;99.90;;;;;;5219309;28;20653;-51
2023/04/04 03:28:11;;;;;;;6.87;2.30;;;-1.90;99.90;;;;;;5172853;28;20218;-52
2023/04/04 03:30:42;;;;;;;5.93;2.40;;;-1.90;99.90;;;;;;5182430;28;20277;-50
2023/04/04 03:33:12;;;;;;;3.60;2.30;;;-2.00;99.90;;;;;;5196704;28;20438;-50
2023/04/04 03:35:43;;;;;;;4.00;2.17;;;-2.00;99.90;;;;;;5192138;28;20189;-49
2023/04/04 03:38:14;;;;;;;5.70;2.60;;;-2.10;99.90;;;;;;5198987;28;20195;-50
2023/04/04 03:40:44;;;;;;;8.70;2.73;;;-2.00;99.90;;;;;;5190594;28;20239;-51
2023/04/04 03:43:15;;;;;;;4.37;2.07;;;-2.10;99.90;;;;;;5210180;28;20270;-50
2023/04/04 03:45:47;;;;;;;14.80;2.70;;;-2.10;99.90;;;;;;5192773;28;20185;-50
2023/04/04 03:48:17;;;;;;;4.33;2.17;;;-2.00;99.90;;;;;;5177343;28;20225;-49
2023/04/04 03:50:48;;;;;;;5.80;2.23;;;-2.00;99.90;;;;;;5200824;28;20965;-49
2023/04/04 03:53:19;;;;;;;10.13;2.30;;;-2.00;99.90;;;;;;5204459;28;20184;-49
2023/04/04 03:55:50;;;;;;;1.70;1.60;;;-2.00;99.90;;;;;;5183768;28;20274;-49
2023/04/04 03:58:21;;;;;;;15.33;2.60;;;-2.00;99.90;;;;;;5186845;28;20193;-49
2023/04/04 04:00:52;;;;;;;4.97;1.63;;;-2.10;99.90;;;;;;5206840;28;20466;-50
2023/04/04 04:03:22;;;;;;;3.30;1.77;;;-2.20;99.90;;;;;;5193151;28;20460;-51
2023/04/04 04:05:54;;;;;;;8.00;2.20;;;-2.10;99.90;;;;;;5195313;28;20639;-49
2023/04/04 04:08:25;;;;;;;1.57;1.47;;;-2.10;99.90;;;;;;5188915;28;20220;-51
2023/04/04 04:10:56;;;;;;;8.13;2.47;;;-2.10;99.90;;;;;;5191783;28;20822;-49
2023/04/04 04:13:28;;;;;;;6.07;1.90;;;-2.10;99.90;;;;;;5198945;28;20434;-50
2023/04/04 04:15:58;;;;;;;5.13;1.93;;;-2.20;99.90;;;;;;5202552;28;20921;-50
2023/04/04 04:18:29;;;;;;;5.43;1.97;;;-2.30;99.90;;;;;;5202914;28;20439;-51
2023/04/04 04:21:01;;;;;;;8.93;2.03;;;-2.30;99.90;;;;;;5198663;28;20221;-50
2023/04/04 04:23:32;;;;;;;3.13;2.37;;;-2.30;99.90;;;;;;5205061;28;20210;-49
2023/04/04 04:26:03;;;;;;;9.93;1.97;;;-2.30;99.90;;;;;;5212119;28;20479;-52
2023/04/04 04:28:33;;;;;;;4.17;2.60;;;-2.30;99.90;;;;;;5202521;28;20211;-50
2023/04/04 04:31:06;;;;;;;4.37;2.07;;;-2.30;99.90;;;;;;5182662;28;20459;-49
2023/04/04 04:33:36;;;;;;;6.53;1.70;;;-2.30;99.90;;;;;;5209548;28;20172;-51
2023/04/04 04:36:07;;;;;;;5.17;2.53;;;-2.30;99.90;;;;;;5195178;28;20501;-51
2023/04/04 04:38:38;;;;;;;9.30;2.30;;;-2.30;99.90;;;;;;5217078;28;20277;-49
2023/04/04 04:41:08;;;;;;;12.23;2.90;;;-2.20;99.90;;;;;;5195497;28;20225;-50
2023/04/04 04:43:40;;;;;;;4.83;1.97;;;-2.20;99.90;;;;;;5202034;28;20286;-49
2023/04/04 04:46:10;;;;;;;6.07;2.73;;;-2.20;99.90;;;;;;5175248;28;20215;-51
2023/04/04 04:48:41;;;;;;;2.20;2.00;;;-2.20;99.90;;;;;;5184502;28;20495;-49
2023/04/04 04:51:13;;;;;;;22.03;3.47;;;-2.20;99.90;;;;;;5202004;28;20207;-49
2023/04/04 04:53:44;;;;;;;5.60;2.37;;;-2.10;99.90;;;;;;5222511;28;20178;-50
2023/04/04 04:56:15;;;;;;;6.97;2.57;;;-1.90;99.90;;;;;;5203624;28;20434;-50
2023/04/04 04:58:47;;;;;;;2.93;2.10;;;-2.10;99.90;;;;;;5223951;28;20651;-49
2023/04/04 05:01:18;;;;;;;5.30;2.00;;;-2.10;99.90;;;;;;5220447;28;20521;-51
2023/04/04 05:03:48;;;;;;;8.40;3.00;;;-2.10;99.90;;;;;;5204058;28;20470;-51
2023/04/04 05:06:19;;;;;;;4.37;2.33;;;-2.00;99.90;;;;;;5192307;28;20608;-51
2023/04/04 05:08:50;;;;;;;10.83;2.30;;;-1.90;99.90;;;;;;5192930;28;20217;-49
2023/04/04 05:11:20;;;;;;;3.00;2.33;;;-1.90;99.90;;;;;;5190809;28;20199;-51
2023/04/04 05:13:51;;;;;;;3.70;2.30;;;-1.80;99.90;;;;;;5202487;28;20191;-50
2023/04/04 05:16:22;;;;;;;4.13;2.47;;;-1.70;99.90;;;;;;5182099;28;20180;-49
2023/04/04 05:18:52;;;;;;;5.40;3.03;;;-1.30;99.90;;;;;;5214840;28;20996;-50
2023/04/04 05:21:23;;;;;;;3.47;2.10;;;-0.30;99.90;;;;;;5202762;28;20257;-50
2023/04/04 05:23:54;;;;;;;7.00;1.97;;;1.30;99.90;;;;;;5199748;28;20254;-49
2023/04/04 05:26:24;;;;;;;7.10;1.60;;;2.70;99.90;;;;;;5183961;28;20184;-51
2023/04/04 05:28:55;;;;;;;6.53;2.13;;;3.10;99.90;;;;;;5203193;28;20722;-50
2023/04/04 05:31:26;;;;;;;3.03;1.77;;;2.90;99.90;;;;;;5217321;28;20183;-51
2023/04/04 05:33:56;;;;;;;2.60;2.43;;;2.80;99.90;;;;;;5204197;28;20179;-51
2023/04/04 05:36:28;;;;;;;2.40;2.20;;;3.00;99.90;;;;;;5204195;28;20679;-50
2023/04/04 05:38:58;;;;;;;3.87;2.00;;;3.70;99.90;;;;;;5217217;28;20207;-51
2023/04/04 05:41:29;;;;;;;2.60;2.03;;;4.00;99.90;;;;;;5197708;28;20517;-50
2023/04/04 05:44:00;;;;;;;3.70;2.73;;;4.10;99.90;;;;;;5197264;28;20188;-48
2023/04/04 05:46:31;;;;;;;6.37;2.60;;;3.50;99.90;;;;;;5202111;28;20811;-48
2023/04/04 05:49:01;;;;;;;2.57;2.03;;;2.80;99.90;;;;;;5178023;28;20698;-49
2023/04/04 05:51:32;;;;;;;5.77;2.73;;;2.40;99.90;;;;;;5188805;28;20192;-49
2023/04/04 05:54:03;;;;;;;5.50;2.60;;;2.30;99.90;;;;;;5192028;28;20211;-52
2023/04/04 05:56:33;;;;;;;2.97;2.10;;;3.80;99.90;;;;;;5184477;28;20187;-51
2023/04/04 05:59:04;;;;;;;4.30;2.20;;;5.70;99.90;;;;;;5179070;28;20350;-50
2023/04/04 06:01:35;;;;;;;6.60;3.00;;;7.20;90.20;;;;;;5196660;28;20261;-50
2023/04/04 06:04:06;;;;;;;4.10;2.63;;;8.80;74.40;;;;;;5190549;28;20494;-51
2023/04/04 06:06:36;;;;;;;3.00;2.13;;;11.00;59.60;;;;;;5189931;28;20288;-50
2023/04/04 06:09:07;;;;;;;9.17;2.13;;;12.90;50.10;;;;;;5193780;28;20184;-51
2023/04/04 06:11:37;;;;;;;7.77;2.83;;;13.80;42.80;;;;;;5213995;28;20180;-51
2023/04/04 06:14:08;;;;;;;6.73;2.53;;;14.80;41.40;;;;;;5197869;28;20180;-51
2023/04/04 06:16:39;;;;;;;4.87;3.10;;;16.10;39.70;;;;;;5196671;28;20656;-50
2023/04/04 06:19:10;;;;;;;3.60;2.47;;;17.40;36.70;;;;;;5181724;28;20241;-50
2023/04/04 06:21:40;;;;;;;3.00;2.10;;;18.20;34.40;;;;;;5205063;28;20867;-51
2023/04/04 06:24:11;;;;;;;5.90;2.50;;;18.60;31.90;;;;;;5188604;28;20187;-52
2023/04/04 06:26:42;;;;;;;2.63;1.73;;;19.10;30.80;;;;;;5173045;28;20291;-51
2023/04/04 06:29:13;;;;;;;3.33;2.30;;;18.60;30.40;;;;;;5211193;28;20211;-51
2023/04/04 06:31:44;;;;;;;3.80;2.37;;;19.10;30.70;;;;;;5175515;28;20438;-51
2023/04/04 06:34:15;;;;;;;8.83;3.10;;;18.90;30.10;;;;;;5212351;28;20179;-50
2023/04/04 06:36:45;;;;;;;8.53;2.27;;;19.50;30.40;;;;;;5203745;28;20180;-51
2023/04/04 06:39:16;;;;;;;3.03;2.37;;;19.80;29.30;;;;;;5202932;28;20270;-51
2023/04/04 06:41:47;;;;;;;6.53;1.77;;;19.20;29.30;;;;;;5201900;28;20175;-53
2023/04/04 06:44:17;;;;;;;5.00;1.90;;;19.20;29.20;;;;;;5197727;28;20226;-51
2023/04/04 06:46:48;;;;;;;6.73;2.27;;;19.90;29.20;;;;;;5201305;28;20532;-52
2023/04/04 06:49:19;;;;;;;4.20;2.23;;;19.30;28.10;;;;;;5213070;28;20204;-50
2023/04/04 06:51:49;;;;;;;2.90;2.70;;;18.80;28.90;;;;;;5215150;28;20180;-50
2023/04/04 06:54:20;;;;;;;4.73;2.27;;;19.40;29.20;;;;;;5200959;28;20271;-50
2023/04/04 06:56:51;;;;;;;8.20;2.20;;;20.20;28.40;;;;;;5210638;28;20195;-51
2023/04/04 06:59:22;;;;;;;2.60;2.13;;;19.90;28.20;;;;;;5187740;28;20208;-51
2023/04/04 07:01:52;;;;;;;2.13;1.93;;;20.90;27.70;;;;;;5202501;28;20449;-51
2023/04/04 07:04:23;;;;;;;9.33;2.37;;;21.20;27.20;;;;;;5208514;28;21612;-51
2023/04/04 07:06:54;;;;;;;5.50;1.70;;;20.80;26.40;;;;;;5172030;28;20218;-51
2023/04/04 07:09:24;;;;;;;9.47;1.47;;;18.70;27.00;;;;;;5178269;28;20252;-50
2023/04/04 07:11:55;;;;;;;2.70;1.37;;;17.40;29.20;;;;;;5200572;28;20262;-50
2023/04/04 07:14:26;;;;;;;2.73;1.50;;;16.70;29.50;;;;;;5193749;28;20188;-52
2023/04/04 07:16:57;;;;;;;2.50;2.00;;;16.90;30.00;;;;;;5193842;28;20270;-51
2023/04/04 07:19:27;;;;;;;5.20;1.97;;;18.10;29.40;;;;;;5198703;28;20269;-50
2023/04/04 07:21:58;;;;;;;4.83;1.60;;;19.20;28.30;;;;;;5209441;28;20691;-52
2023/04/04 07:24:29;;;;;;;1.27;1.13;;;20.30;27.40;;;;;;5199458;28;20275;-51
2023/04/04 07:26:59;;;;;;;4.00;1.37;;;21.30;26.60;;;;;;5192107;28;20211;-50
2023/04/04 07:29:30;;;;;;;3.13;1.40;;;21.50;26.30;;;;;;5186697;28;20196;-50
2023/04/04 07:32:00;;;;;;;2.10;1.10;;;21.70;25.30;;;;;;5209190;28;20190;-50
2023/04/04 07:34:31;;;;;;;3.17;1.80;;;21.30;25.80;;;;;;5212124;28;20191;-50
2023/04/04 07:37:02;;;;;;;1.43;1.33;;;20.60;26.70;;;;;;5190542;28;20183;-51
2023/04/04 07:39:33;;;;;;;3.37;1.63;;;21.10;26.50;;;;;;5214775;28;20250;-49
2023/04/04 07:42:03;;;;;;;1.83;1.73;;;21.90;26.30;;;;;;5217181;28;20460;-51
2023/04/04 07:44:34;;;;;;;3.40;1.87;;;22.00;25.70;;;;;;5191757;28;20274;-52
2023/04/04 07:47:04;;;;;;;4.00;1.67;;;21.90;25.00;;;;;;5211781;28;20755;-51
2023/04/04 07:49:35;;;;;;;5.60;1.70;;;22.10;25.30;;;;;;5194813;28;20203;-51
2023/04/04 07:52:06;;;;;;;4.70;1.30;;;21.40;24.90;;;;;;5199795;28;20208;-52
2023/04/04 07:54:36;;;;;;;1.13;1.00;;;20.50;25.60;;;;;;5193734;28;20266;-51
2023/04/04 07:57:10;;;;;;;1.60;1.50;;;20.20;26.10;;;;;;5191487;28;20681;-50
2023/04/04 07:59:41;;;;;;;4.17;2.00;;;20.80;26.10;;;;;;5199667;28;20632;-50
2023/04/04 08:02:11;;;;;;;2.43;1.40;;;21.10;25.60;;;;;;5182724;28;20438;-51
2023/04/04 08:04:42;;;;;;;1.53;1.43;;;19.90;25.50;;;;;;5194687;28;20191;-51
2023/04/04 08:07:12;;;;;;;1.67;1.57;;;18.40;26.50;;;;;;5212054;28;20199;-51
2023/04/04 08:09:43;;;;;;;2.67;1.60;;;17.50;27.70;;;;;;5181538;28;20289;-50
2023/04/04 08:12:14;;;;;;;5.50;1.97;;;17.60;28.00;;;;;;5198406;28;20187;-52
2023/04/04 08:14:45;;;;;;;3.07;1.50;;;17.90;28.10;;;;;;5198586;28;20233;-50
2023/04/04 08:17:17;;;;;;;1.70;1.60;;;16.10;28.70;;;;;;5194117;28;20827;-51
2023/04/04 08:19:48;;;;;;;2.50;1.77;;;14.70;29.50;;;;;;5197115;28;20554;-51
2023/04/04 08:22:19;;;;;;;2.30;0.87;;;13.00;32.20;;;;;;5211531;28;20445;-51
2023/04/04 08:24:49;;;;;;;2.33;1.30;;;11.40;35.10;;;;;;5195641;28;20644;-49
2023/04/04 08:27:20;;;;;;;4.73;1.73;;;10.00;38.20;;;;;;5181818;28;20362;-51
2023/04/04 08:29:51;;;;;;;4.87;1.33;;;9.10;41.70;;;;;;5199338;28;20230;-50
2023/04/04 08:32:21;;;;;;;6.00;1.47;;;8.30;42.30;;;;;;5186922;28;20440;-52
2023/04/04 08:34:53;;;;;;;2.40;1.73;;;7.30;43.10;;;;;;5199653;28;20671;-51
2023/04/04 08:37:23;;;;;;;6.70;1.33;;;6.80;45.60;;;;;;5187956;28;20187;-49
2023/04/04 08:39:54;;;;;;;2.63;1.30;;;7.10;46.30;;;;;;5196817;28;20473;-52
2023/04/04 08:42:27;;;;;;;4.93;2.03;;;7.40;46.00;;;;;;5186027;28;20299;-51
2023/04/04 08:45:03;;;;;;;3.80;1.30;;;7.50;46.00;;;;;;5189612;28;20191;-51
2023/04/04 08:47:35;;;;;;;2.47;1.30;;;7.40;45.10;;;;;;5189204;28;20554;-50
2023/04/04 08:50:06;;;;;;;3.40;1.33;;;6.70;46.20;;;;;;5188711;28;20450;-50
2023/04/04 08:52:39;;;;;;;4.53;1.33;;;6.40;46.30;;;;;;5198940;28;20438;-49
2023/04/04 08:55:10;;;;;;;1.80;1.10;;;6.10;46.70;;;;;;5194586;28;20532;-51
2023/04/04 08:57:42;;;;;;;2.00;1.00;;;6.10;47.00;;;;;;5195442;28;20455;-51
2023/04/04 09:00:16;;;;;;;2.13;1.27;;;5.80;46.50;;;;;;5194708;28;20457;-50
2023/04/04 09:03:09;;;;;;;4.10;1.10;;;5.60;46.00;;;;;;5211199;28;20430;-51
2023/04/04 09:05:42;;;;;;;4.13;1.33;;;5.40;46.70;;;;;;5215705;28;20490;-51
2023/04/04 09:08:15;;;;;;;4.67;1.80;;;5.10;47.20;;;;;;5185610;28;20478;-51
2023/04/04 09:10:46;;;;;;;3.33;1.40;;;4.90;48.30;;;;;;5198134;28;20444;-49
2023/04/04 09:13:18;;;;;;;2.27;1.27;;;4.90;48.40;;;;;;5218851;28;20448;-51
2023/04/04 09:15:53;;;;;;;6.23;1.47;;;5.00;48.80;;;;;;5199281;28;20520;-50
2023/04/04 09:18:24;;;;;;;3.70;1.10;;;5.00;47.90;;;;;;5194578;28;20452;-52
2023/04/04 09:20:55;;;;;;;2.00;1.67;;;5.20;47.50;;;;;;5203035;28;20460;-50
2023/04/04 09:23:25;;;;;;;1.40;1.37;;;5.30;48.60;;;;;;5189211;28;20650;-51
2023/04/04 09:25:56;;;;;;;2.87;1.57;;;5.60;48.20;;;;;;5200556;28;20235;-50
2023/04/04 09:28:27;;;;;;;3.70;1.30;;;5.70;48.00;;;;;;5202394;28;20694;-51
2023/04/04 09:31:04;;;;;;;4.03;1.37;;;5.80;48.10;;;;;;5202630;28;20220;-51
2023/04/04 09:33:35;;;;;;;1.80;1.50;;;6.00;47.20;;;;;;5197867;28;20278;-50
2023/04/04 09:36:11;;;;;;;2.87;1.17;;;6.30;46.60;;;;;;5214237;28;20525;-50
2023/04/04 09:38:42;;;;;;;0.93;0.93;;;6.30;45.40;;;;;;5194629;28;20186;-51
2023/04/04 09:41:15;;;;;;;3.90;1.80;;;6.20;45.40;;;;;;5184519;28;21022;-50
2023/04/04 09:43:46;;;;;;;2.57;1.40;;;6.40;45.50;;;;;;5185165;28;20605;-50
2023/04/04 09:46:20;;;;;;;0.80;0.80;;;6.40;45.30;;;;;;5217474;28;20443;-50
2023/04/04 09:48:50;;;;;;;5.93;1.30;;;6.60;45.60;;;;;;5194655;28;22004;-51
2023/04/04 09:51:21;;;;;;;5.80;1.40;;;6.50;43.60;;;;;;5203514;28;20445;-50
2023/04/04 09:53:52;;;;;;;5.13;1.70;;;6.40;44.00;;;;;;5180411;28;20186;-50
2023/04/04 09:56:22;;;;;;;2.20;1.07;;;6.40;44.50;;;;;;5192792;28;20258;-51
2023/04/04 09:58:53;;;;;;;4.77;1.00;;;6.40;43.90;;;;;;5193980;28;20255;-50
2023/04/04 10:01:24;;;;;;;1.07;0.77;;;6.50;43.00;;;;;;5196107;28;20685;-50
2023/04/04 10:03:57;;;;;;;1.30;1.00;;;6.40;43.10;;;;;;5199815;28;20457;-49
2023/04/04 10:06:28;;;;;;;1.90;0.70;;;6.10;43.60;;;;;;5196440;28;22436;-51
2023/04/04 10:09:00;;;;;;;0.80;0.80;;;6.00;44.20;;;;;;5195372;28;20468;-51
2023/04/04 10:11:32;;;;;;;0.80;0.80;;;6.30;43.70;;;;;;5178402;28;20453;-52
2023/04/04 10:14:03;;;;;;;3.43;1.10;;;6.70;43.20;;;;;;5174359;28;20450;-52
2023/04/04 10:16:36;;;;;;;2.33;1.20;;;7.00;41.00;;;;;;5179946;28;20438;-51
2023/04/04 10:19:08;;;;;;;3.60;1.50;;;7.40;40.80;;;;;;5198102;28;20180;-50
2023/04/04 10:21:40;;;;;;;4.17;1.10;;;7.40;41.30;;;;;;5208754;28;20441;-51
2023/04/04 10:24:12;;;;;;;2.60;1.90;;;7.40;41.90;;;;;;5191135;28;20446;-50
2023/04/04 10:26:43;;;;;;;2.37;1.00;;;7.30;41.50;;;;;;5199175;28;20458;-50
2023/04/04 10:29:14;;;;;;;0.80;0.80;;;7.10;41.60;;;;;;5198539;28;20457;-49
2023/04/04 10:31:47;;;;;;;2.57;0.70;;;6.90;41.80;;;;;;5183861;28;20266;-51
2023/04/04 10:34:31;;;;;;;0.67;0.67;;;6.90;41.20;;;;;;5194470;28;20439;-51
2023/04/04 10:37:11;;;;;;;1.10;1.10;;;6.90;41.10;;;;;;5203116;28;20434;-48
2023/04/04 10:40:00;;;;;;;0.90;0.90;;;7.30;40.70;;;;;;5197252;28;20509;-50
2023/04/04 10:42:37;;;;;;;1.83;1.20;;;7.40;40.00;;;;;;5204320;28;20465;-50
2023/04/04 10:45:09;;;;;;;1.90;0.67;;;7.10;40.40;;;;;;5199857;28;20433;-51
2023/04/04 10:47:41;;;;;;;2.20;1.20;;;7.10;39.20;;;;;;5186483;28;20473;-51
2023/04/04 10:50:12;;;;;;;0.87;0.87;;;7.30;39.10;;;;;;5201236;28;20455;-51
2023/04/04 10:52:44;;;;;;;1.80;1.30;;;7.50;38.50;;;;;;5193436;28;20447;-51
2023/04/04 10:55:16;;;;;;;0.93;0.93;;;7.40;37.80;;;;;;5214375;28;20438;-50
2023/04/04 10:57:51;;;;;;;7.30;1.17;;;7.40;37.90;;;;;;5182296;28;21278;-52
2023/04/04 11:00:23;;;;;;;1.17;1.07;;;7.70;37.40;;;;;;5195050;28;20517;-50
2023/04/04 11:02:58;;;;;;;1.00;0.83;;;7.80;36.60;;;;;;5179679;28;20782;-52
2023/04/04 11:05:40;;;;;;;1.70;0.60;;;7.90;36.30;;;;;;5195237;28;20464;-50
2023/04/04 11:08:15;;;;;;;1.37;0.87;;;8.30;35.30;;;;;;5190484;28;20477;-49
2023/04/04 11:10:51;;;;;;;2.03;0.90;;;8.40;35.50;;;;;;5191354;28;20465;-51
2023/04/04 11:13:28;;;;;;;2.20;1.03;;;8.10;36.00;;;;;;5197353;28;20541;-49
2023/04/04 11:16:03;;;;;;;0.80;0.80;;;7.60;37.20;;;;;;5184382;28;20469;-49
2023/04/04 11:18:40;;;;;;;1.70;1.03;;;7.10;37.80;;;;;;5192362;28;20978;-50
2023/04/04 11:21:18;;;;;;;4.63;0.90;;;6.90;38.50;;;;;;5197863;28;20449;-49
2023/04/04 11:23:58;;;;;;;0.70;0.70;;;7.10;38.60;;;;;;5188509;28;20550;-50
2023/04/04 11:26:29;;;;;;;3.43;0.80;;;7.10;39.00;;;;;;5186124;28;20446;-49
2023/04/04 11:29:00;;;;;;;0.70;0.70;;;7.10;37.80;;;;;;5196943;28;20827;-49
2023/04/04 11:31:32;;;;;;;2.83;0.90;;;7.00;37.80;;;;;;5210110;28;20182;-51
2023/04/04 11:34:11;;;;;;;2.23;0.97;;;7.00;38.10;;;;;;5212215;28;20529;-49
2023/04/04 11:36:43;;;;;;;3.47;1.63;;;6.90;36.40;;;;;;5206811;28;20427;-50
2023/04/04 11:39:15;;;;;;;1.77;1.30;;;6.90;36.00;;;;;;5195182;28;20465;-50
2023/04/04 11:41:56;;;;;;;8.70;1.30;;;7.20;36.50;;;;;;5192986;28;20533;-51
2023/04/04 11:44:30;;;;;;;0.90;0.90;;;7.40;36.70;;;;;;5190543;28;20430;-52
2023/04/04 11:47:08;;;;;;;1.33;0.80;;;7.40;38.00;;;;;;5182702;28;20500;-47
2023/04/04 11:49:40;;;;;;;3.17;1.00;;;7.50;38.30;;;;;;5193037;28;20505;-49
2023/04/04 11:52:12;;;;;;;1.87;0.73;;;7.60;37.50;;;;;;5215868;28;20427;-51
2023/04/04 11:54:45;;;;;;;1.00;0.90;;;7.70;37.40;;;;;;5199168;28;20433;-49
2023/04/04 11:57:18;;;;;;;2.17;1.13;;;7.90;37.70;;;;;;5200087;28;20823;-51
2023/04/04 11:59:50;;;;;;;1.20;1.10;;;8.20;37.80;;;;;;5199120;28;20462;-50
2023/04/04 12:02:30;;;;;;;0.60;0.60;;;8.50;36.60;;;;;;5189133;28;20439;-50
2023/04/04 12:05:03;;;;;;;0.80;0.80;;;8.50;36.50;;;;;;5173184;28;20441;-49
2023/04/04 12:07:34;;;;;;;1.57;1.20;;;8.50;36.70;;;;;;5194797;28;20830;-52
2023/04/04 12:10:05;;;;;;;1.40;0.60;;;8.60;36.20;;;;;;5199883;28;20469;-49
2023/04/04 12:12:38;;;;;;;0.80;0.80;;;8.70;36.40;;;;;;5198383;28;20206;-51
2023/04/04 12:15:12;;;;;;;0.80;0.80;;;8.60;34.70;;;;;;5200836;28;20433;-50
2023/04/04 12:17:44;;;;;;;1.80;1.70;;;8.30;34.90;;;;;;5187866;28;20438;-49
2023/04/04 12:20:15;;;;;;;1.10;1.10;;;8.10;34.80;;;;;;5194025;28;21120;-49
2023/04/04 12:22:49;;;;;;;7.10;1.20;;;8.30;34.80;;;;;;5190321;28;20455;-50
2023/04/04 12:25:22;;;;;;;1.40;0.80;;;8.50;34.50;;;;;;5179055;28;20297;-51
2023/04/04 12:27:54;;;;;;;2.20;0.80;;;8.70;33.90;;;;;;5180867;28;20474;-50
2023/04/04 12:30:25;;;;;;;3.30;1.10;;;8.50;33.70;;;;;;5184509;28;20463;-49
2023/04/04 12:32:56;;;;;;;1.13;1.13;;;8.20;35.00;;;;;;5196696;28;20477;-49
2023/04/04 12:35:28;;;;;;;1.30;0.83;;;8.00;36.20;;;;;;5198564;28;20913;-49
2023/04/04 12:38:06;;;;;;;3.07;1.07;;;7.80;36.90;;;;;;5202542;28;20794;-50
2023/04/04 12:40:38;;;;;;;1.10;1.10;;;7.50;37.10;;;;;;5202359;28;20469;-51
2023/04/04 12:43:15;;;;;;;1.63;1.07;;;7.50;37.50;;;;;;5203189;28;20437;-51
2023/04/04 12:45:48;;;;;;;2.43;1.57;;;7.70;37.30;;;;;;5194832;28;20442;-50
2023/04/04 12:48:25;;;;;;;1.47;1.37;;;8.10;36.70;;;;;;5185462;28;20468;-50
2023/04/04 12:50:57;;;;;;;2.93;1.30;;;8.40;36.40;;;;;;5201470;28;20461;-51
2023/04/04 12:53:28;;;;;;;0.63;0.60;;;8.80;35.50;;;;;;5185943;28;20481;-50
2023/04/04 12:56:03;;;;;;;4.60;1.80;;;8.80;34.80;;;;;;5171899;28;20946;-53
2023/04/04 12:58:36;;;;;;;3.23;1.30;;;8.80;35.20;;;;;;5201567;28;20502;-52
2023/04/04 13:01:08;;;;;;;2.03;1.07;;;8.80;35.40;;;;;;5214783;28;20465;-53
2023/04/04 13:03:38;;;;;;;1.00;1.00;;;8.70;35.50;;;;;;5185861;28;20446;-49
2023/04/04 13:06:16;;;;;;;3.27;0.83;;;8.80;35.60;;;;;;5200225;28;20438;-50
2023/04/04 13:08:53;;;;;;;0.97;0.97;;;8.80;34.60;;;;;;5196108;28;20211;-50
2023/04/04 13:11:25;;;;;;;2.93;1.30;;;8.70;33.40;;;;;;5202054;28;20442;-50
2023/04/04 13:14:02;;;;;;;1.30;1.20;;;8.60;33.70;;;;;;5197274;28;20549;-52